Time;durP1;ratioP1;P1;durP2;ratioP2;P2;SDS_P1;SDS_P2;PMS_P1;PMS_P2;Temp;Humidity;BMP_temperature;BMP_pressure;BME280_temperature;BME280_humidity;BME280_pressure;Samples;Min_cycle;Max_cycle;Signal;HPM_P1;HPM_P2
2022/01/06 00:01:58;;;;;;;49.85;37.10;;;;;;;6.93;69.19;98693.91;4994929;28;20041;-82
2022/01/06 00:04:23;;;;;;;53.83;39.92;;;;;;;7.74;69.40;98822.94;4994945;28;20026;-82
2022/01/06 00:06:49;;;;;;;49.17;36.90;;;;;;;7.95;69.04;98857.25;4994316;28;20034;-80
2022/01/06 00:09:17;;;;;;;52.30;39.00;;;;;;;6.69;69.11;98666.03;4976727;28;20061;-82
2022/01/06 00:11:43;;;;;;;52.70;40.50;;;;;;;7.92;69.79;98871.56;4994398;28;20037;-81
2022/01/06 00:24:22;;;;;;;47.97;36.70;;;;;;;7.52;69.73;98806.22;4994124;28;20037;-81
2022/01/06 00:26:48;;;;;;;46.80;35.80;;;;;;;7.84;69.92;98861.13;4976338;28;20417;-82
2022/01/06 00:29:15;;;;;;;49.03;37.63;;;;;;;7.05;70.06;98727.63;4994218;28;20535;-82
2022/01/06 00:31:40;;;;;;;55.60;41.08;;;;;;;7.77;69.24;98857.56;4994126;28;20100;-81
2022/01/06 00:34:10;;;;;;;52.10;36.80;;;;;;;7.52;69.67;98803.59;4994074;28;20031;-82
2022/01/06 00:36:39;;;;;;;49.28;36.90;;;;;;;6.81;69.61;98697.94;4993871;28;20030;-82
2022/01/06 00:39:06;;;;;;;46.83;32.78;;;;;;;6.70;69.67;98677.34;4993879;28;20030;-82
2022/01/06 00:41:34;;;;;;;45.03;32.17;;;;;;;6.86;69.66;98719.22;4993930;28;20038;-82
2022/01/06 00:44:00;;;;;;;45.20;35.00;;;;;;;7.60;70.37;98832.41;4992913;28;20026;-82
2022/01/06 00:46:25;;;;;;;43.55;31.63;;;;;;;7.80;69.94;98869.53;4994087;28;20033;-83
2022/01/06 00:48:51;;;;;;;47.50;34.42;;;;;;;6.92;70.51;98736.88;4993880;28;20052;-81
2022/01/06 00:51:16;;;;;;;39.88;30.90;;;;;;;7.83;70.68;98875.25;4993796;28;20038;-82
2022/01/06 00:53:42;;;;;;;39.63;29.83;;;;;;;7.88;70.62;98875.53;4993927;28;20117;-82
2022/01/06 00:56:07;;;;;;;32.15;25.63;;;;;;;6.54;70.30;98648.59;4993452;28;20023;-82
2022/01/06 00:58:33;;;;;;;37.42;28.80;;;;;;;7.94;70.09;98879.28;4976311;28;20026;-80
2022/01/06 01:00:58;;;;;;;31.48;24.05;;;;;;;7.94;70.06;98864.31;4993570;28;20018;-81
2022/01/06 01:03:24;;;;;;;32.13;23.90;;;;;;;7.31;69.62;98770.88;4992600;28;20037;-82
2022/01/06 01:05:53;;;;;;;29.60;25.67;;;;;;;8.01;70.14;98858.34;4994006;28;20491;-82
2022/01/06 01:08:18;;;;;;;28.50;22.27;;;;;;;7.89;70.68;98837.75;4993475;28;20038;-80
2022/01/06 01:10:45;;;;;;;31.58;23.92;;;;;;;7.68;70.14;98786.88;4993393;28;20097;-82
2022/01/06 01:13:12;;;;;;;24.58;19.77;;;;;;;7.36;70.46;98727.53;4993351;28;20476;-81
2022/01/06 01:15:46;;;;;;;15.60;12.07;;;;;;;8.27;71.72;98879.81;4993395;28;20026;-82
2022/01/06 01:18:13;;;;;;;26.17;20.95;;;;;;;8.43;71.45;98860.44;4993396;28;20050;-82
2022/01/06 01:20:39;;;;;;;27.52;21.48;;;;;;;8.44;70.30;98891.84;4993168;28;20128;-81
2022/01/06 01:23:05;;;;;;;26.55;20.52;;;;;;;7.61;69.49;98750.81;4992941;28;20511;-82
2022/01/06 01:25:30;;;;;;;24.50;19.17;;;;;;;7.22;69.25;98700.25;4992687;28;20455;-82
2022/01/06 01:27:57;;;;;;;27.67;22.00;;;;;;;7.35;69.25;98737.22;4992738;28;20022;-82
2022/01/06 01:30:30;;;;;;;26.80;21.58;;;;;;;7.82;69.36;98818.44;4975686;28;20406;-81
2022/01/06 01:32:57;;;;;;;25.92;21.73;;;;;;;7.18;68.87;98736.53;4993010;28;20032;-81
2022/01/06 01:35:24;;;;;;;30.08;24.55;;;;;;;7.70;68.67;98825.09;4992976;28;20058;-82
2022/01/06 01:37:49;;;;;;;30.45;23.42;;;;;;;6.89;68.83;98716.25;4992720;28;20185;-82
2022/01/06 01:40:14;;;;;;;30.60;24.77;;;;;;;7.68;69.34;98842.88;4975325;28;20101;-81
2022/01/06 01:42:40;;;;;;;26.80;21.55;;;;;;;7.51;68.76;98831.66;4992719;28;20034;-80
2022/01/06 01:45:08;;;;;;;28.35;22.83;;;;;;;6.20;68.54;98647.16;4975351;28;20062;-82
2022/01/06 01:47:40;;;;;;;30.73;23.65;;;;;;;7.72;68.92;98903.75;4993223;28;20420;-83
2022/01/06 01:50:16;;;;;;;31.33;22.23;;;;;;;6.87;68.46;98749.72;4992672;28;20179;-80
2022/01/06 01:52:45;;;;;;;33.20;25.17;;;;;;;7.68;68.50;98868.31;4992824;28;20045;-81
2022/01/06 01:55:16;;;;;;;34.03;25.48;;;;;;;7.66;69.21;98871.13;4992475;28;20084;-80
2022/01/06 01:57:41;;;;;;;34.35;26.30;;;;;;;7.65;68.59;98867.69;4992679;28;20026;-82
2022/01/06 02:00:09;;;;;;;35.92;26.13;;;;;;;7.47;68.95;98834.81;4992342;28;20539;-82
2022/01/06 02:02:35;;;;;;;45.55;29.75;;;;;;;6.28;69.11;98648.91;4992222;28;20487;-83
2022/01/06 02:05:01;;;;;;;39.20;28.90;;;;;;;7.61;68.71;98855.88;4974649;28;20037;-79
2022/01/06 02:07:27;;;;;;;36.20;28.05;;;;;;;7.39;68.33;98817.28;4992226;28;20113;-81
2022/01/06 02:09:52;;;;;;;35.95;26.77;;;;;;;6.73;68.25;98710.28;4991996;28;20145;-82
2022/01/06 02:12:32;;;;;;;36.15;28.35;;;;;;;6.32;68.41;98653.63;4990851;28;20516;-83
2022/01/06 02:14:58;;;;;;;35.88;25.63;;;;;;;7.53;68.64;98855.94;4991871;28;20026;-83
2022/01/06 02:17:23;;;;;;;35.78;27.52;;;;;;;6.68;69.07;98729.97;4991781;28;20058;-81
2022/01/06 02:20:13;;;;;;;32.88;25.67;;;;;;;7.44;68.28;98849.13;4992381;28;20577;-85
2022/01/06 02:22:39;;;;;;;34.28;25.83;;;;;;;7.21;68.58;98808.88;4992385;28;20033;-84
2022/01/06 02:25:19;;;;;;;35.55;27.58;;;;;;;7.41;68.40;98849.44;4992260;28;20033;-85
2022/01/06 02:27:50;;;;;;;36.20;27.30;;;;;;;7.29;68.15;98827.19;4974717;28;20442;-85
2022/01/06 02:30:16;;;;;;;35.63;26.05;;;;;;;6.46;68.48;98699.28;4974760;28;20414;-84
2022/01/06 02:32:42;;;;;;;33.53;24.70;;;;;;;6.11;68.34;98650.81;4992212;28;20022;-85
2022/01/06 02:35:13;;;;;;;30.83;23.65;;;;;;;6.69;68.58;98757.84;4992014;28;20557;-84
2022/01/06 02:37:39;;;;;;;31.95;23.60;;;;;;;7.23;68.81;98843.66;4991850;28;20487;-84
2022/01/06 02:40:13;;;;;;;32.17;26.27;;;;;;;7.22;68.68;98853.34;4991975;28;20113;-84
2022/01/06 02:42:41;;;;;;;46.20;31.80;;;;;;;7.13;68.68;98832.56;4991991;28;20072;-84
2022/01/06 02:45:07;;;;;;;44.40;30.73;;;;;;;6.75;68.43;98768.66;4991939;28;20583;-84
2022/01/06 02:47:33;;;;;;;37.40;27.60;;;;;;;5.81;68.36;98620.09;4991952;28;20054;-84
2022/01/06 02:49:58;;;;;;;37.28;27.58;;;;;;;6.93;68.71;98805.94;4992340;28;20022;-84
2022/01/06 02:52:24;;;;;;;34.42;25.88;;;;;;;7.16;68.10;98840.09;4993121;28;20561;-85
2022/01/06 02:54:49;;;;;;;37.78;28.45;;;;;;;6.39;69.03;98727.16;4975476;28;20491;-85
2022/01/06 02:57:15;;;;;;;38.05;28.45;;;;;;;6.20;68.76;98723.16;4974295;28;20026;-85
2022/01/06 02:59:40;;;;;;;38.35;27.23;;;;;;;6.20;68.09;98701.38;4991951;28;20054;-84
2022/01/06 03:02:06;;;;;;;37.35;30.23;;;;;;;5.87;68.83;98659.53;4974372;28;20038;-85
2022/01/06 03:04:31;;;;;;;32.03;25.75;;;;;;;6.81;68.70;98826.50;4991709;28;20034;-83
2022/01/06 03:06:57;;;;;;;32.05;25.20;;;;;;;6.81;68.71;98821.25;4991875;28;20033;-84
2022/01/06 03:09:34;;;;;;;34.25;26.40;;;;;;;6.04;68.52;98705.69;4994276;28;20094;-85
2022/01/06 03:12:01;;;;;;;35.03;26.50;;;;;;;6.94;68.55;98878.44;4995791;28;20037;-84
2022/01/06 03:14:26;;;;;;;38.10;28.15;;;;;;;6.23;68.57;98751.66;4995873;28;20028;-85
2022/01/06 03:16:51;;;;;;;38.75;28.83;;;;;;;6.70;68.17;98826.88;4989957;28;20022;-84
2022/01/06 03:19:17;;;;;;;35.70;26.17;;;;;;;6.85;68.65;98872.41;5017490;28;20094;-82
2022/01/06 03:21:42;;;;;;;34.25;25.40;;;;;;;5.73;68.48;98702.13;4995298;28;20518;-81
2022/01/06 03:24:08;;;;;;;32.60;25.77;;;;;;;5.88;68.62;98765.13;4995172;28;20113;-82
2022/01/06 03:26:33;;;;;;;32.17;24.58;;;;;;;6.05;68.57;98767.59;4995154;28;20018;-83
2022/01/06 03:28:59;;;;;;;33.03;25.92;;;;;;;6.67;68.83;98866.53;4995219;28;20030;-84
2022/01/06 03:31:24;;;;;;;32.47;25.92;;;;;;;5.31;68.16;98663.94;4977674;28;20607;-85
2022/01/06 03:33:49;;;;;;;33.13;26.77;;;;;;;6.28;68.72;98804.38;4995176;28;20109;-84
2022/01/06 03:36:15;;;;;;;32.28;25.90;;;;;;;6.63;68.11;98866.06;4995116;28;20096;-84
2022/01/06 03:38:40;;;;;;;32.45;27.88;;;;;;;6.64;68.75;98867.69;4994939;28;20030;-83
2022/01/06 03:41:06;;;;;;;33.80;25.55;;;;;;;6.44;68.13;98849.91;4994762;28;20022;-82
2022/01/06 03:43:31;;;;;;;37.60;27.35;;;;;;;6.56;68.09;98878.22;4977324;28;20026;-83
2022/01/06 03:45:56;;;;;;;34.45;26.63;;;;;;;5.01;68.31;98647.09;4994676;28;20046;-83
2022/01/06 03:48:22;;;;;;;35.40;28.08;;;;;;;6.42;68.54;98868.41;4994826;28;20419;-84
2022/01/06 03:50:47;;;;;;;35.75;28.20;;;;;;;5.30;68.09;98696.31;4994730;28;20423;-82
2022/01/06 03:53:13;;;;;;;38.00;29.25;;;;;;;6.45;68.21;98891.69;4994391;28;20081;-82
2022/01/06 03:55:39;;;;;;;35.55;28.23;;;;;;;5.35;68.03;98720.19;4994589;28;20422;-83
2022/01/06 03:58:05;;;;;;;37.55;28.35;;;;;;;5.19;68.29;98698.44;4994508;28;20054;-82
2022/01/06 04:00:31;;;;;;;40.90;29.77;;;;;;;5.68;68.48;98765.50;4994417;28;20068;-82
2022/01/06 04:02:57;;;;;;;40.03;30.20;;;;;;;5.04;68.31;98679.94;4994330;28;20062;-82
2022/01/06 04:05:22;;;;;;;42.00;29.88;;;;;;;5.94;68.37;98809.84;4994400;28;20030;-83
2022/01/06 04:07:47;;;;;;;34.60;27.00;;;;;;;6.40;68.44;98877.44;4994287;28;20026;-82
2022/01/06 04:10:13;;;;;;;38.88;29.90;;;;;;;6.20;68.01;98872.56;4994080;28;20034;-83
2022/01/06 04:12:39;;;;;;;36.45;27.27;;;;;;;6.33;68.35;98874.66;4994490;28;20088;-81
2022/01/06 04:15:12;;;;;;;34.92;28.65;;;;;;;5.64;68.17;98766.81;4976634;28;20026;-81
2022/01/06 04:17:38;;;;;;;36.83;28.95;;;;;;;5.93;68.22;98844.06;4994242;28;20030;-80
2022/01/06 04:20:07;;;;;;;42.00;32.65;;;;;;;6.32;68.33;98886.13;4994134;28;20030;-82
2022/01/06 04:22:32;;;;;;;48.75;34.90;;;;;;;5.53;68.11;98761.91;4994320;28;20030;-81
2022/01/06 04:24:57;;;;;;;40.58;31.50;;;;;;;6.30;67.88;98878.44;4994488;28;20069;-82
2022/01/06 04:27:23;;;;;;;41.78;31.65;;;;;;;5.88;68.04;98814.91;4994232;28;20025;-80
2022/01/06 04:29:48;;;;;;;39.92;32.03;;;;;;;5.88;67.67;98835.84;4993968;28;20495;-82
2022/01/06 04:32:14;;;;;;;52.13;36.50;;;;;;;5.64;68.24;98793.00;4994080;28;20045;-83
2022/01/06 04:34:39;;;;;;;84.75;51.67;;;;;;;4.90;68.07;98698.91;4993900;28;20042;-83
2022/01/06 04:37:04;;;;;;;59.63;40.35;;;;;;;6.26;67.80;98913.84;4976176;28;20324;-83
2022/01/06 04:39:30;;;;;;;47.15;35.20;;;;;;;5.65;67.84;98806.91;4993954;28;20065;-83
2022/01/06 04:41:55;;;;;;;45.53;34.20;;;;;;;5.29;68.18;98782.84;4994116;28;20022;-83
2022/01/06 04:44:21;;;;;;;48.15;36.22;;;;;;;5.13;68.08;98749.63;4993784;28;20026;-82
2022/01/06 04:46:46;;;;;;;48.17;36.47;;;;;;;6.05;67.94;98901.25;4993657;28;20526;-83
2022/01/06 04:49:11;;;;;;;47.92;35.25;;;;;;;5.88;68.09;98870.72;4993689;28;20030;-85
2022/01/06 04:51:37;;;;;;;45.70;36.22;;;;;;;5.97;68.53;98879.47;4993525;28;20034;-82
2022/01/06 04:54:03;;;;;;;41.75;34.53;;;;;;;6.10;68.27;98903.38;4993781;28;20491;-83
2022/01/06 04:56:35;;;;;;;46.42;35.78;;;;;;;5.91;68.34;98870.44;4993613;28;20131;-81
2022/01/06 04:59:02;;;;;;;48.63;37.05;;;;;;;6.09;68.62;98901.72;4993593;28;20495;-82
2022/01/06 05:01:28;;;;;;;52.35;36.97;;;;;;;5.61;68.35;98826.53;4993492;28;20057;-84
2022/01/06 05:03:53;;;;;;;54.55;39.92;;;;;;;5.81;67.93;98855.84;4993390;28;20031;-84
2022/01/06 05:06:19;;;;;;;57.83;43.22;;;;;;;5.04;68.22;98727.03;4975940;28;20033;-84
2022/01/06 05:08:44;;;;;;;56.83;40.35;;;;;;;4.69;68.15;98654.94;4992078;28;20109;-83
2022/01/06 05:11:09;;;;;;;55.28;42.10;;;;;;;5.58;68.71;98803.31;4993181;28;20034;-82
2022/01/06 05:13:35;;;;;;;58.67;42.67;;;;;;;5.71;68.15;98814.91;4993333;28;20022;-81
2022/01/06 05:16:00;;;;;;;56.90;43.53;;;;;;;5.83;68.22;98832.91;4992925;28;20026;-81
2022/01/06 05:18:25;;;;;;;59.72;45.55;;;;;;;5.24;68.20;98733.63;4975641;28;20022;-81
2022/01/06 05:20:51;;;;;;;52.50;40.67;;;;;;;4.56;68.10;98625.84;4993058;28;20022;-84
2022/01/06 05:23:19;;;;;;;55.75;43.60;;;;;;;5.35;68.53;98762.09;4993028;28;20551;-81
2022/01/06 05:25:44;;;;;;;52.45;42.45;;;;;;;5.91;68.78;98854.72;4992966;28;20030;-80
2022/01/06 05:28:09;;;;;;;63.03;49.63;;;;;;;5.78;68.61;98840.44;4992620;28;20492;-81
2022/01/06 05:30:35;;;;;;;66.60;50.67;;;;;;;6.23;68.37;98911.53;4992077;28;20460;-80
2022/01/06 05:33:00;;;;;;;68.88;49.80;;;;;;;4.85;68.15;98691.56;4992751;28;20035;-80
2022/01/06 05:35:26;;;;;;;67.72;52.33;;;;;;;6.25;68.61;98900.91;4992783;28;20026;-84
2022/01/06 05:37:51;;;;;;;135.77;93.80;;;;;;;5.94;68.46;98853.56;4992608;28;20026;-85
2022/01/06 05:40:17;;;;;;;106.07;74.32;;;;;;;5.57;68.24;98796.44;4992427;28;20451;-80
2022/01/06 05:42:42;;;;;;;75.57;52.88;;;;;;;6.27;67.87;98914.66;4992411;28;20023;-83
2022/01/06 05:45:09;;;;;;;64.20;49.75;;;;;;;5.32;67.86;98770.25;4992600;28;20053;-87
2022/01/06 05:47:35;;;;;;;67.22;53.22;;;;;;;6.15;67.95;98892.38;4992417;28;20479;-82
2022/01/06 05:50:01;;;;;;;67.80;49.80;;;;;;;5.13;67.87;98738.34;4992533;28;20058;-83
2022/01/06 05:52:27;;;;;;;72.78;52.30;;;;;;;4.83;68.11;98697.94;4992533;28;20050;-83
2022/01/06 05:54:52;;;;;;;68.30;50.50;;;;;;;6.07;68.26;98903.69;4992772;28;20065;-80
2022/01/06 05:57:19;;;;;;;74.30;52.83;;;;;;;6.15;67.85;98926.47;4992660;28;20035;-82
2022/01/06 05:59:45;;;;;;;74.85;57.72;;;;;;;5.05;68.17;98750.44;4992695;28;20026;-83
2022/01/06 06:02:10;;;;;;;79.00;58.00;;;;;;;5.73;67.87;98877.63;4992627;28;20092;-80
2022/01/06 06:04:35;;;;;;;72.63;50.33;;;;;;;4.82;68.10;98730.28;4992644;28;20491;-81
2022/01/06 06:07:01;;;;;;;70.28;50.00;;;;;;;6.10;68.05;98939.25;4992682;28;20033;-82
2022/01/06 06:09:26;;;;;;;71.40;53.15;;;;;;;5.64;68.04;98863.69;4992635;28;20037;-79
2022/01/06 06:11:52;;;;;;;76.40;54.78;;;;;;;6.11;68.54;98936.47;4992537;28;20034;-81
2022/01/06 06:14:17;;;;;;;74.20;55.25;;;;;;;4.71;68.13;98713.94;4992640;28;20034;-80
2022/01/06 06:16:43;;;;;;;72.35;52.08;;;;;;;5.72;68.37;98861.09;5029458;28;20029;-84
2022/01/06 06:19:09;;;;;;;83.80;58.50;;;;;;;6.38;68.44;98961.50;5030315;28;20533;-84
2022/01/06 06:21:34;;;;;;;78.90;54.90;;;;;;;6.48;67.77;98983.13;5031926;28;20028;-81
2022/01/06 06:24:00;;;;;;;63.53;48.13;;;;;;;5.78;67.39;98846.50;5031966;28;20037;-80
2022/01/06 06:26:25;;;;;;;60.83;46.97;;;;;;;6.21;67.61;98924.00;5031793;28;20025;-84
2022/01/06 06:28:51;;;;;;;63.38;46.53;;;;;;;6.57;67.75;98957.72;5027943;28;20491;-82
2022/01/06 06:31:16;;;;;;;63.97;48.97;;;;;;;6.14;67.29;98883.72;5027178;28;20407;-85
2022/01/06 06:33:42;;;;;;;77.40;59.28;;;;;;;6.33;67.71;98925.28;4999877;28;21026;-85
2022/01/06 06:36:07;;;;;;;87.68;62.78;;;;;;;6.31;67.16;98908.09;5015546;28;20091;-84
2022/01/06 06:38:32;;;;;;;97.80;70.97;;;;;;;6.02;67.63;98848.34;5031540;28;20033;-82
2022/01/06 06:40:58;;;;;;;90.90;67.35;;;;;;;6.72;67.32;98955.25;5031383;28;20029;-83
2022/01/06 06:43:23;;;;;;;95.85;71.50;;;;;;;6.24;67.02;98878.28;5028652;28;20053;-85
2022/01/06 06:45:49;;;;;;;93.35;68.57;;;;;;;5.70;66.83;98787.09;5014476;28;20022;-84
2022/01/06 06:48:15;;;;;;;96.90;72.45;;;;;;;7.03;66.44;98987.63;5013552;28;20026;-82
2022/01/06 06:50:41;;;;;;;120.72;84.68;;;;;;;5.63;66.32;98751.25;5019614;28;20017;-84
2022/01/06 06:53:07;;;;;;;150.32;93.72;;;;;;;6.78;66.29;98984.25;5015172;28;20021;-82
2022/01/06 06:55:33;;;;;;;151.43;101.25;;;;;;;6.20;66.49;98840.28;5016039;28;20077;-84
2022/01/06 06:57:59;;;;;;;137.70;100.50;;;;;;;7.12;66.15;98989.25;5011246;28;20065;-84
2022/01/06 07:00:24;;;;;;;130.27;94.82;;;;;;;7.26;66.32;99016.59;5025715;28;20038;-81
2022/01/06 07:02:50;;;;;;;117.95;86.05;;;;;;;7.27;66.71;99019.06;5014886;28;20030;-82
2022/01/06 07:05:16;;;;;;;119.57;89.03;;;;;;;7.29;65.94;99021.50;5021511;28;20104;-83
2022/01/06 07:07:42;;;;;;;124.88;87.65;;;;;;;6.80;66.41;98932.44;5026170;28;20155;-84
2022/01/06 07:10:08;;;;;;;126.95;99.03;;;;;;;6.25;66.48;98844.03;5034546;28;20506;-83
2022/01/06 07:12:38;;;;;;;107.40;79.35;;;;;;;6.71;66.50;98924.75;5025849;28;20463;-82
2022/01/06 07:15:06;;;;;;;118.65;86.25;;;;;;;6.78;66.12;98931.78;5005463;28;20517;-84
2022/01/06 07:17:31;;;;;;;91.72;68.32;;;;;;;6.71;66.28;98916.88;4996735;28;20425;-83
2022/01/06 07:19:57;;;;;;;91.30;66.07;;;;;;;7.32;66.79;99027.25;5012255;28;20029;-84
2022/01/06 07:22:22;;;;;;;91.78;64.57;;;;;;;7.11;66.74;98990.22;5014883;28;20029;-84
2022/01/06 07:24:48;;;;;;;82.03;59.42;;;;;;;7.24;66.69;99002.81;4997402;28;20026;-85
2022/01/06 07:27:13;;;;;;;81.32;59.97;;;;;;;7.26;66.53;99017.41;5013011;28;20025;-83
2022/01/06 07:29:38;;;;;;;76.88;55.75;;;;;;;6.95;66.24;98949.09;5016395;28;20109;-84
2022/01/06 07:32:04;;;;;;;68.43;50.35;;;;;;;6.81;66.16;98930.63;5011815;28;20030;-84
2022/01/06 07:34:29;;;;;;;63.30;46.70;;;;;;;7.53;66.87;99031.94;5008006;28;20029;-84
2022/01/06 07:36:55;;;;;;;59.47;46.03;;;;;;;5.90;66.35;98763.19;5012687;28;20048;-82
2022/01/06 07:39:20;;;;;;;61.67;45.78;;;;;;;7.55;66.32;99027.34;4985057;28;20028;-84
2022/01/06 07:41:46;;;;;;;55.67;42.90;;;;;;;7.58;66.23;99042.75;5003859;28;20418;-83
2022/01/06 07:44:11;;;;;;;54.20;42.05;;;;;;;7.57;66.99;99020.09;4996006;28;20503;-85
2022/01/06 07:46:37;;;;;;;49.63;39.22;;;;;;;7.63;66.44;99045.69;5034043;28;20068;-84
2022/01/06 07:49:04;;;;;;;49.42;38.05;;;;;;;7.56;66.89;99020.28;5021899;28;20026;-82
2022/01/06 07:51:31;;;;;;;55.45;42.25;;;;;;;7.52;66.47;99005.84;5038436;28;20049;-83
2022/01/06 07:54:00;;;;;;;55.40;39.55;;;;;;;7.53;66.51;98994.34;5014342;28;20030;-84
2022/01/06 07:56:26;;;;;;;58.15;42.63;;;;;;;7.78;66.46;99029.19;5006887;28;20861;-83
2022/01/06 07:58:53;;;;;;;55.78;44.20;;;;;;;6.39;66.33;98824.19;5002739;28;20033;-83
2022/01/06 08:01:19;;;;;;;55.92;43.65;;;;;;;7.90;66.28;99033.88;4996000;28;20053;-84
2022/01/06 08:03:44;;;;;;;58.90;44.22;;;;;;;7.40;66.53;98938.91;5014233;28;20112;-82
2022/01/06 08:06:11;;;;;;;52.10;41.03;;;;;;;7.98;66.88;99033.00;5009765;28;20095;-84
2022/01/06 08:08:37;;;;;;;54.67;43.78;;;;;;;7.45;66.79;98944.47;5011720;28;20038;-83
2022/01/06 08:11:03;;;;;;;51.38;40.55;;;;;;;7.45;66.47;98940.06;4996234;28;20036;-84
2022/01/06 08:13:28;;;;;;;51.42;39.65;;;;;;;6.35;66.36;98770.44;4998534;28;20034;-84
2022/01/06 08:15:54;;;;;;;51.10;38.67;;;;;;;6.98;66.23;98854.28;5024045;28;20478;-83
2022/01/06 08:18:19;;;;;;;50.90;37.60;;;;;;;7.46;66.99;98911.97;5013704;28;20064;-85
2022/01/06 08:20:44;;;;;;;46.22;33.22;;;;;;;8.32;66.37;99061.56;5015186;28;20034;-81
2022/01/06 08:23:10;;;;;;;49.28;37.45;;;;;;;8.39;66.32;99048.56;5018829;28;20037;-81
2022/01/06 08:25:36;;;;;;;46.88;34.47;;;;;;;8.47;66.02;99041.44;5009879;28;20029;-81
2022/01/06 08:28:02;;;;;;;45.78;35.55;;;;;;;7.86;65.87;98929.28;4991368;28;20022;-80
2022/01/06 08:30:28;;;;;;;49.38;37.85;;;;;;;8.63;65.65;99047.56;5010698;28;20034;-81
2022/01/06 08:32:55;;;;;;;39.38;32.00;;;;;;;8.37;65.77;98990.06;5021556;28;20045;-80
2022/01/06 08:35:23;;;;;;;45.95;36.28;;;;;;;8.09;65.65;98939.78;5021875;28;20117;-80
2022/01/06 08:37:49;;;;;;;43.53;31.75;;;;;;;7.50;65.51;98823.97;5014374;28;20517;-83
2022/01/06 08:40:15;;;;;;;46.35;35.15;;;;;;;7.55;65.76;98819.81;5014223;28;20038;-81
2022/01/06 08:42:41;;;;;;;46.30;36.25;;;;;;;7.63;65.61;98837.31;4976134;28;20537;-82
2022/01/06 08:45:07;;;;;;;45.88;35.83;;;;;;;9.01;65.69;99046.56;5004581;28;20045;-82
2022/01/06 08:47:33;;;;;;;50.33;38.17;;;;;;;9.08;65.58;99044.03;5010587;28;20024;-80
2022/01/06 08:49:59;;;;;;;51.22;40.85;;;;;;;8.15;65.41;98879.41;5013574;28;20417;-81
2022/01/06 08:52:25;;;;;;;45.08;35.28;;;;;;;9.20;65.36;99046.03;4994229;28;20033;-81
2022/01/06 08:54:50;;;;;;;53.35;40.15;;;;;;;9.25;65.15;99040.22;5002817;28;20581;-81
2022/01/06 08:57:16;;;;;;;53.42;42.15;;;;;;;8.52;65.24;98920.69;5011561;28;20073;-82
2022/01/06 08:59:42;;;;;;;51.92;38.80;;;;;;;8.49;65.25;98918.44;5006867;28;20029;-83
2022/01/06 09:02:08;;;;;;;53.22;40.03;;;;;;;7.87;64.69;98792.44;5012363;28;20033;-82
2022/01/06 09:04:34;;;;;;;46.08;37.75;;;;;;;9.04;64.69;98964.56;4991160;28;20408;-83
2022/01/06 09:07:00;;;;;;;51.30;40.42;;;;;;;8.23;64.54;98831.22;5011622;28;20173;-84
2022/01/06 09:09:26;;;;;;;40.03;31.58;;;;;;;9.13;64.48;98967.94;5010174;28;20026;-83
2022/01/06 09:11:51;;;;;;;40.33;30.33;;;;;;;8.63;64.53;98897.56;4991579;28;20057;-83
2022/01/06 09:14:17;;;;;;;34.70;29.38;;;;;;;8.94;65.15;98927.19;4992720;28;20038;-83
2022/01/06 09:16:43;;;;;;;35.92;27.98;;;;;;;9.68;64.90;99035.94;5011302;28;20069;-80
2022/01/06 09:19:09;;;;;;;33.83;28.10;;;;;;;9.56;64.76;99017.13;5011303;28;20021;-81
2022/01/06 09:21:34;;;;;;;36.08;27.10;;;;;;;9.62;64.71;99014.75;4989502;28;20714;-81
2022/01/06 09:24:01;;;;;;;31.30;25.55;;;;;;;9.03;64.31;98917.38;5012315;28;20022;-83
2022/01/06 09:26:27;;;;;;;33.90;26.17;;;;;;;9.17;64.35;98956.03;5012092;28;20038;-80
2022/01/06 09:28:52;;;;;;;31.50;25.20;;;;;;;9.38;64.61;98965.81;5008696;28;20520;-82
2022/01/06 09:31:18;;;;;;;30.25;24.33;;;;;;;9.12;64.31;98924.16;5009110;28;20063;-80
2022/01/06 09:33:43;;;;;;;29.75;23.92;;;;;;;9.14;64.24;98925.59;5010441;28;20034;-82
2022/01/06 09:36:09;;;;;;;32.83;24.30;;;;;;;9.36;64.20;98925.66;4994679;28;20033;-80
2022/01/06 09:38:35;;;;;;;28.02;22.45;;;;;;;8.74;63.86;98818.97;5007535;28;20091;-79
2022/01/06 09:41:05;;;;;;;27.38;23.30;;;;;;;10.03;64.09;99031.66;5011483;28;20038;-80
2022/01/06 09:43:32;;;;;;;29.33;22.33;;;;;;;9.44;63.39;98934.28;5010552;28;20079;-80
2022/01/06 09:46:08;;;;;;;27.33;24.00;;;;;;;10.12;63.98;99024.44;5014682;28;20033;-80
2022/01/06 09:48:36;;;;;;;28.48;22.70;;;;;;;9.62;63.57;98922.50;5012072;28;20110;-80
2022/01/06 09:51:02;;;;;;;36.60;28.10;;;;;;;9.84;63.35;98951.34;5009591;28;20032;-78
2022/01/06 09:53:27;;;;;;;32.58;24.15;;;;;;;9.62;62.92;98898.78;5011403;28;20025;-78
2022/01/06 09:55:53;;;;;;;29.23;23.92;;;;;;;10.41;63.22;99020.94;4990632;28;20041;-80
2022/01/06 09:58:27;;;;;;;34.35;23.90;;;;;;;10.47;63.10;99039.47;5011674;28;20052;-81
2022/01/06 10:00:55;;;;;;;34.75;26.95;;;;;;;10.06;62.86;98938.16;5011343;28;20045;-80
2022/01/06 10:03:41;;;;;;;28.73;23.45;;;;;;;10.45;62.72;98995.78;5011184;28;20030;-81
2022/01/06 10:06:13;;;;;;;34.95;24.63;;;;;;;10.66;62.59;99018.69;5004223;28;20042;-82
2022/01/06 10:08:38;;;;;;;27.40;22.95;;;;;;;10.02;62.80;98914.00;5015801;28;20028;-82
2022/01/06 10:11:12;;;;;;;35.83;27.65;;;;;;;10.68;62.69;99030.69;5011667;28;20030;-81
2022/01/06 10:13:39;;;;;;;30.92;24.85;;;;;;;9.92;62.42;98881.84;4992278;28;20032;-81
2022/01/06 10:16:16;;;;;;;26.13;21.45;;;;;;;10.36;62.63;98944.13;5005346;28;20034;-80
2022/01/06 10:19:01;;;;;;;33.20;26.60;;;;;;;10.01;62.90;98874.63;4991249;28;20089;-80
2022/01/06 10:21:32;;;;;;;29.08;23.23;;;;;;;10.31;62.40;98906.94;5008785;28;20033;-76
2022/01/06 10:24:04;;;;;;;27.17;23.30;;;;;;;10.24;62.03;98891.06;5011116;28;20042;-86
2022/01/06 10:26:30;;;;;;;28.55;23.23;;;;;;;10.21;62.51;98893.28;5011646;28;20453;-85
2022/01/06 10:28:55;;;;;;;31.63;24.95;;;;;;;9.87;62.63;98826.22;4998912;28;20030;-86
2022/01/06 10:31:25;;;;;;;31.00;26.80;;;;;;;9.48;62.25;98758.16;4992244;28;20030;-85
2022/01/06 10:33:51;;;;;;;31.10;25.33;;;;;;;10.12;62.47;98839.81;5009106;28;20030;-86
2022/01/06 10:36:16;;;;;;;30.95;22.55;;;;;;;10.71;62.22;98929.16;5016207;28;20029;-85
2022/01/06 10:38:52;;;;;;;28.08;23.27;;;;;;;11.09;62.30;98974.50;5008009;28;20414;-85
2022/01/06 10:41:17;;;;;;;26.85;21.83;;;;;;;11.22;61.61;98986.97;5009177;28;20044;-85
2022/01/06 10:43:51;;;;;;;25.30;22.58;;;;;;;10.27;62.07;98832.63;5006929;28;20022;-85
2022/01/06 10:46:30;;;;;;;27.27;22.30;;;;;;;11.30;62.03;99014.06;5006048;28;20037;-84
2022/01/06 10:48:57;;;;;;;31.02;25.05;;;;;;;10.06;62.42;98815.00;5005977;28;20060;-85
2022/01/06 10:51:32;;;;;;;27.90;21.30;;;;;;;11.46;61.84;99029.59;4996155;28;20026;-86
2022/01/06 10:53:57;;;;;;;27.20;21.80;;;;;;;11.42;61.60;98998.47;5008809;28;20052;-84
2022/01/06 10:56:24;;;;;;;32.00;24.13;;;;;;;11.23;61.61;98948.97;5008261;28;21567;-83
2022/01/06 10:58:50;;;;;;;25.05;21.10;;;;;;;11.51;61.67;98994.63;4986303;28;20057;-84
2022/01/06 11:01:16;;;;;;;30.25;23.02;;;;;;;11.08;61.98;98912.91;5008337;28;20018;-86
2022/01/06 11:03:42;;;;;;;31.88;23.15;;;;;;;11.37;61.99;98962.03;5007675;28;20050;-83
2022/01/06 11:06:10;;;;;;;27.70;23.00;;;;;;;10.31;61.85;98796.13;5011216;28;20080;-85
2022/01/06 11:08:40;;;;;;;32.10;25.75;;;;;;;10.53;61.91;98812.72;5005280;28;20124;-78
2022/01/06 11:13:45;;;;;;;29.08;25.05;;;;;;;11.45;61.87;98969.81;5009288;28;20053;-84
2022/01/06 11:16:13;;;;;;;32.47;26.05;;;;;;;11.06;62.28;98919.41;5008054;28;20415;-82
2022/01/06 11:18:41;;;;;;;35.47;28.02;;;;;;;10.17;62.46;98797.84;5009226;28;20514;-82
2022/01/06 11:21:09;;;;;;;29.50;25.15;;;;;;;10.93;62.79;98899.03;5007094;28;20499;-82
2022/01/06 11:23:35;;;;;;;32.40;26.13;;;;;;;11.36;62.92;98973.63;4989939;28;20026;-77
2022/01/06 11:26:06;;;;;;;32.97;27.00;;;;;;;11.36;62.68;98959.59;5009054;28;20022;-77
2022/01/06 11:28:32;;;;;;;30.23;25.08;;;;;;;10.85;62.64;98878.06;5001897;28;20030;-81
2022/01/06 11:31:17;;;;;;;39.30;28.30;;;;;;;10.62;63.29;98835.28;5013937;28;20092;-77
2022/01/06 11:33:44;;;;;;;36.70;30.02;;;;;;;11.36;63.01;98954.31;4994911;28;20526;-78
2022/01/06 11:36:27;;;;;;;36.10;28.75;;;;;;;11.35;63.09;98953.50;5008743;28;20029;-77